createdAt,value
2024-05-09T00:01:27.193Z,15.53
2024-05-09T00:04:29.340Z,15.52
2024-05-09T00:07:31.315Z,15.38
2024-05-09T00:10:37.108Z,15.38
2024-05-09T00:13:40.744Z,15.40
2024-05-09T00:16:42.785Z,15.29
2024-05-09T00:19:45.589Z,15.17
2024-05-09T00:22:47.553Z,15.10
2024-05-09T00:25:49.496Z,15.08
2024-05-09T00:28:51.440Z,14.99
2024-05-09T00:31:53.438Z,14.99
2024-05-09T00:34:55.474Z,14.91
2024-05-09T00:37:57.415Z,14.81
2024-05-09T00:40:59.370Z,14.82
2024-05-09T00:44:01.945Z,14.87
2024-05-09T00:47:04.240Z,14.85
2024-05-09T00:50:10.174Z,14.85
2024-05-09T00:53:19.047Z,14.90
2024-05-09T00:56:21.891Z,14.88
2024-05-09T00:59:24.944Z,14.86
2024-05-09T01:02:28.786Z,14.81
2024-05-09T01:05:32.176Z,14.75
2024-05-09T01:08:34.275Z,14.72
2024-05-09T01:11:37.750Z,14.59
2024-05-09T01:14:39.782Z,14.60
2024-05-09T01:17:42.033Z,14.53
2024-05-09T01:20:45.393Z,14.44
2024-05-09T01:23:47.749Z,14.50
2024-05-09T01:26:50.465Z,14.41
2024-05-09T01:29:52.388Z,14.35
2024-05-09T01:32:54.438Z,14.28
2024-05-09T01:35:56.523Z,14.34
2024-05-09T01:38:58.652Z,14.29
2024-05-09T01:42:00.574Z,14.16
2024-05-09T01:45:02.453Z,14.10
2024-05-09T01:48:05.083Z,14.21
2024-05-09T01:51:07.191Z,14.14
2024-05-09T01:54:09.193Z,14.14
2024-05-09T01:57:11.202Z,14.05
2024-05-09T02:03:18.143Z,13.97
2024-05-09T02:06:20.393Z,13.90
2024-05-09T02:09:22.333Z,13.93
2024-05-09T02:12:24.312Z,13.86
2024-05-09T02:15:26.255Z,13.87
2024-05-09T02:18:28.363Z,13.80
2024-05-09T02:21:34.222Z,13.78
2024-05-09T02:24:36.212Z,13.68
2024-05-09T02:27:38.191Z,13.63
2024-05-09T02:30:41.917Z,13.57
2024-05-09T02:33:44.726Z,13.58
2024-05-09T02:36:46.804Z,13.54
2024-05-09T02:39:48.713Z,13.48
2024-05-09T02:42:50.890Z,13.48
2024-05-09T02:45:52.777Z,13.44
2024-05-09T02:48:54.758Z,13.24
2024-05-09T02:51:56.729Z,13.14
2024-05-09T02:54:58.627Z,13.06
2024-05-09T02:58:00.526Z,13.01
2024-05-09T03:01:02.563Z,13.03
2024-05-09T03:04:05.215Z,12.99
2024-05-09T03:07:07.224Z,12.97
2024-05-09T03:10:18.211Z,12.85
2024-05-09T03:13:24.963Z,12.83
2024-05-09T03:16:26.956Z,12.76
2024-05-09T03:19:28.951Z,12.68
2024-05-09T03:22:31.053Z,12.68
2024-05-09T03:25:33.567Z,12.69
2024-05-09T03:28:35.558Z,12.70
2024-05-09T03:31:39.041Z,12.81
2024-05-09T03:34:41.049Z,12.82
2024-05-09T03:37:42.969Z,12.87
2024-05-09T03:40:50.013Z,12.79
2024-05-09T03:43:52.628Z,12.92
2024-05-09T03:46:54.554Z,12.98
2024-05-09T03:49:56.524Z,13.04
2024-05-09T03:52:58.438Z,13.11
2024-05-09T03:56:00.488Z,13.16
2024-05-09T03:59:02.508Z,13.25
2024-05-09T04:02:06.568Z,13.32
2024-05-09T04:05:08.921Z,13.38
2024-05-09T04:08:11.314Z,13.49
2024-05-09T04:11:13.505Z,13.60
2024-05-09T04:14:15.508Z,13.62
2024-05-09T04:17:17.521Z,13.72
2024-05-09T04:20:29.199Z,14.38
2024-05-09T04:23:39.053Z,16.30
2024-05-09T04:26:41.032Z,16.76
2024-05-09T04:29:42.917Z,17.14
2024-05-09T04:32:44.992Z,17.63
2024-05-09T04:35:48.867Z,17.96
2024-05-09T04:38:50.746Z,17.58
2024-05-09T04:41:52.658Z,18.19
2024-05-09T04:44:58.295Z,18.35
2024-05-09T04:48:01.291Z,18.75
2024-05-09T04:51:04.333Z,18.91
2024-05-09T04:58:41.411Z,17.55
2024-05-09T05:01:43.336Z,18.08
2024-05-09T05:04:45.463Z,18.55
2024-05-09T05:07:47.492Z,18.76
2024-05-09T05:10:49.753Z,18.96
2024-05-09T05:13:51.837Z,19.11
2024-05-09T05:16:53.768Z,19.43
2024-05-09T05:19:56.857Z,19.71
2024-05-09T05:22:58.877Z,19.58
2024-05-09T05:26:00.848Z,19.91
2024-05-09T05:29:02.898Z,19.67
2024-05-09T05:32:05.360Z,19.55
2024-05-09T05:35:07.540Z,19.30
2024-05-09T05:38:16.360Z,19.72
2024-05-09T05:41:25.396Z,19.84
2024-05-09T05:44:27.734Z,19.74
2024-05-09T05:47:29.878Z,20.29
2024-05-09T05:50:36.124Z,20.03
2024-05-09T05:53:40.079Z,20.67
2024-05-09T05:56:42.746Z,20.79
2024-05-09T05:59:44.983Z,20.81
2024-05-09T06:02:47.166Z,20.99
2024-05-09T06:05:49.239Z,20.98
2024-05-09T06:08:51.267Z,20.95
2024-05-09T06:11:53.294Z,21.04
2024-05-09T06:14:55.222Z,20.88
2024-05-09T06:17:57.370Z,20.47
2024-05-09T06:20:59.446Z,20.33
2024-05-09T06:24:03.780Z,20.35
2024-05-09T06:27:07.275Z,20.26
2024-05-09T06:30:14.436Z,20.29
2024-05-09T06:33:22.793Z,20.32
2024-05-09T06:36:24.893Z,20.11
2024-05-09T06:39:26.812Z,19.86
2024-05-09T06:42:28.836Z,20.04
2024-05-09T06:45:30.758Z,19.96
2024-05-09T06:48:36.576Z,19.94
2024-05-09T06:51:39.466Z,19.69
2024-05-09T06:54:41.491Z,19.67
2024-05-09T06:57:43.390Z,19.71
2024-05-09T07:00:48.716Z,19.79
2024-05-09T07:04:10.093Z,19.42
2024-05-09T07:07:22.412Z,19.42
2024-05-09T07:10:32.755Z,19.61
2024-05-09T07:13:37.311Z,19.86
2024-05-09T07:16:39.298Z,20.13
2024-05-09T07:19:41.343Z,20.12
2024-05-09T07:22:43.374Z,20.26
2024-05-09T07:25:46.331Z,20.07
2024-05-09T07:28:48.484Z,20.20
2024-05-09T07:31:51.449Z,20.27
2024-05-09T07:34:53.518Z,19.92
2024-05-09T07:37:55.550Z,19.98
2024-05-09T07:41:07.034Z,20.25
2024-05-09T07:44:12.055Z,20.14
2024-05-09T07:48:28.279Z,19.99
2024-05-09T07:53:48.829Z,20.03
2024-05-09T07:56:54.005Z,20.12
2024-05-09T08:00:33.172Z,19.85
2024-05-09T08:03:35.557Z,19.98
2024-05-09T08:06:38.177Z,20.10
2024-05-09T08:09:40.293Z,20.16
2024-05-09T08:12:42.444Z,20.23
2024-05-09T08:15:46.451Z,20.73
2024-05-09T08:18:48.625Z,20.89
2024-05-09T08:21:50.672Z,21.07
2024-05-09T08:24:52.807Z,21.15
2024-05-09T08:27:54.986Z,21.24
2024-05-09T08:30:57.271Z,21.57
2024-05-09T08:33:59.437Z,21.77
2024-05-09T08:37:03.891Z,21.66
2024-05-09T08:40:23.477Z,21.64
2024-05-09T08:43:30.332Z,21.75
2024-05-09T08:46:33.769Z,21.79
2024-05-09T08:49:41.956Z,21.79
2024-05-09T08:52:44.714Z,21.94
2024-05-09T08:55:47.139Z,21.91
2024-05-09T08:58:49.631Z,22.04
2024-05-09T09:01:52.056Z,21.81
2024-05-09T09:05:05.749Z,21.87
2024-05-09T09:08:08.891Z,22.03
2024-05-09T09:11:11.315Z,21.78
2024-05-09T09:14:13.413Z,21.51
2024-05-09T09:17:16.280Z,21.60
2024-05-09T09:20:26.259Z,21.53
2024-05-09T09:23:35.291Z,21.69
2024-05-09T09:26:37.274Z,21.56
2024-05-09T09:29:39.875Z,21.58
2024-05-09T09:32:41.920Z,21.57
2024-05-09T09:35:43.957Z,21.62
2024-05-09T09:38:47.692Z,21.49
2024-05-09T09:41:49.974Z,21.61
2024-05-09T09:45:01.889Z,21.07
2024-05-09T09:48:08.729Z,21.00
2024-05-09T09:51:11.530Z,20.89
2024-05-09T09:54:13.854Z,20.70
2024-05-09T09:57:19.391Z,20.84
2024-05-09T10:00:27.294Z,21.30
2024-05-09T10:03:34.901Z,21.48
2024-05-09T10:06:41.358Z,21.88
2024-05-09T10:09:43.419Z,22.20
2024-05-09T10:13:12.551Z,22.19
2024-05-09T10:16:22.380Z,22.00
2024-05-09T10:19:26.106Z,22.10
2024-05-09T10:22:28.756Z,22.19
2024-05-09T10:25:30.749Z,22.31
2024-05-09T10:28:35.271Z,22.47
2024-05-09T10:31:41.495Z,22.68
2024-05-09T10:34:44.187Z,22.76
2024-05-09T10:37:46.728Z,22.72
2024-05-09T10:40:56.611Z,22.61
2024-05-09T10:43:58.550Z,22.49
2024-05-09T10:47:00.560Z,22.53
2024-05-09T10:50:06.083Z,22.33
2024-05-09T10:53:12.020Z,22.33
2024-05-09T10:56:15.292Z,22.38
2024-05-09T10:59:19.351Z,22.36
2024-05-09T11:02:27.374Z,22.24
2024-05-09T11:05:29.787Z,22.33
2024-05-09T11:08:33.579Z,22.24
2024-05-09T11:11:35.718Z,22.32
2024-05-09T11:14:37.970Z,22.26
2024-05-09T11:17:40.095Z,22.27
2024-05-09T11:20:42.782Z,22.43
2024-05-09T11:23:45.044Z,22.32
2024-05-09T11:26:47.736Z,22.48
2024-05-09T11:29:49.690Z,22.51
2024-05-09T11:37:02.451Z,22.33
2024-05-09T11:40:09.240Z,22.28
2024-05-09T11:43:13.927Z,22.30
2024-05-09T11:46:16.003Z,22.20
2024-05-09T11:49:18.115Z,22.15
2024-05-09T11:52:20.347Z,22.17
2024-05-09T11:55:26.746Z,22.19
2024-05-09T11:58:34.306Z,22.16
2024-05-09T12:01:36.427Z,22.34
2024-05-09T12:04:38.689Z,22.49
2024-05-09T12:07:43.439Z,22.63
2024-05-09T12:10:46.037Z,22.55
2024-05-09T12:13:48.305Z,22.45
2024-05-09T12:16:50.309Z,22.48
2024-05-09T12:19:52.951Z,22.32
2024-05-09T12:22:54.861Z,22.52
2024-05-09T12:25:56.889Z,22.77
2024-05-09T12:28:58.832Z,22.80
2024-05-09T12:32:00.812Z,22.91
2024-05-09T12:35:02.874Z,22.77
2024-05-09T12:38:05.249Z,22.52
2024-05-09T12:41:07.390Z,22.48
2024-05-09T12:44:09.415Z,22.37
2024-05-09T12:47:11.422Z,22.46
2024-05-09T12:50:21.919Z,22.52
2024-05-09T12:53:27.219Z,22.64
2024-05-09T12:56:29.384Z,22.60
2024-05-09T12:59:31.364Z,22.53
2024-05-09T13:02:33.498Z,22.60
2024-05-09T13:05:35.917Z,22.71
2024-05-09T13:08:38.041Z,22.99
2024-05-09T13:11:40.030Z,23.66
2024-05-09T13:14:42.051Z,23.63
2024-05-09T13:17:44.108Z,23.49
2024-05-09T13:20:46.627Z,23.44
2024-05-09T13:23:48.537Z,23.18
2024-05-09T13:26:50.543Z,23.20
2024-05-09T13:29:52.460Z,23.12
2024-05-09T13:32:55.111Z,23.04
2024-05-09T13:35:57.182Z,22.98
2024-05-09T13:38:59.324Z,22.90
2024-05-09T13:42:01.215Z,22.84
2024-05-09T13:45:03.260Z,22.85
2024-05-09T13:48:06.880Z,22.69
2024-05-09T13:51:09.046Z,22.77
2024-05-09T13:54:10.995Z,22.84
2024-05-09T13:57:13.179Z,23.04
2024-05-09T14:00:26.984Z,23.41
2024-05-09T14:03:37.402Z,23.52
2024-05-09T14:06:39.627Z,23.27
2024-05-09T14:09:42.224Z,23.04
2024-05-09T14:12:44.297Z,23.12
2024-05-09T14:15:46.945Z,23.29
2024-05-09T14:18:49.288Z,23.29
2024-05-09T14:21:51.316Z,23.33
2024-05-09T14:24:53.834Z,23.47
2024-05-09T14:27:58.127Z,23.31
2024-05-09T14:31:01.363Z,23.03
2024-05-09T14:34:03.685Z,22.75
2024-05-09T14:37:05.804Z,22.96
2024-05-09T14:40:14.680Z,22.94
2024-05-09T14:43:23.823Z,22.94
2024-05-09T14:46:26.153Z,23.02
2024-05-09T14:49:28.357Z,23.23
2024-05-09T14:52:30.423Z,23.28
2024-05-09T14:55:35.765Z,23.19
2024-05-09T14:58:39.248Z,23.15
2024-05-09T15:01:41.318Z,23.17
2024-05-09T15:04:43.624Z,23.04
2024-05-09T15:07:45.970Z,22.91
2024-05-09T15:10:50.078Z,22.81
2024-05-09T15:13:52.577Z,22.83
2024-05-09T15:16:54.633Z,22.87
2024-05-09T15:19:56.719Z,22.95
2024-05-09T15:22:58.840Z,22.89
2024-05-09T15:26:00.852Z,22.86
2024-05-09T15:29:03.463Z,22.99
2024-05-09T15:32:06.170Z,22.84
2024-05-09T15:35:08.126Z,22.79
2024-05-09T15:38:10.266Z,22.64
2024-05-09T15:41:13.557Z,22.62
2024-05-09T15:44:15.510Z,22.62
2024-05-09T15:47:17.567Z,22.77
2024-05-09T15:50:28.314Z,22.76
2024-05-09T15:53:37.661Z,22.69
2024-05-09T15:56:40.769Z,22.48
2024-05-09T15:59:43.012Z,22.42
2024-05-09T16:02:45.190Z,22.28
2024-05-09T16:05:48.310Z,22.26
2024-05-09T16:08:50.646Z,22.21
2024-05-09T16:11:53.296Z,22.12
2024-05-09T16:14:55.726Z,21.99
2024-05-09T16:17:57.903Z,21.94
2024-05-09T16:21:00.347Z,21.80
2024-05-09T16:24:02.352Z,21.71
2024-05-09T16:27:04.663Z,21.72
2024-05-09T16:30:11.979Z,21.74
2024-05-09T16:33:25.744Z,21.75
2024-05-09T16:36:27.921Z,21.63
2024-05-09T16:39:29.935Z,21.39
2024-05-09T16:42:32.139Z,21.08
2024-05-09T16:45:34.350Z,20.90
2024-05-09T16:48:37.285Z,20.82
2024-05-09T16:51:39.368Z,20.71
2024-05-09T16:54:41.518Z,20.62
2024-05-09T16:57:43.635Z,20.55
2024-05-09T17:00:45.802Z,20.48
2024-05-09T17:03:49.476Z,20.36
2024-05-09T17:06:51.597Z,20.33
2024-05-09T17:09:53.727Z,20.31
2024-05-09T17:12:55.762Z,20.29
2024-05-09T17:15:57.835Z,20.22
2024-05-09T17:19:00.387Z,20.17
2024-05-09T17:22:03.029Z,20.18
2024-05-09T17:25:05.748Z,20.15
2024-05-09T17:28:09.433Z,20.10
2024-05-09T17:31:11.693Z,20.00
2024-05-09T17:34:13.882Z,19.95
2024-05-09T17:37:16.133Z,19.77
2024-05-09T17:40:27.112Z,19.77
2024-05-09T17:43:33.194Z,19.71
2024-05-09T17:46:35.224Z,19.62
2024-05-09T17:49:37.205Z,19.57
2024-05-09T17:52:39.169Z,19.41
2024-05-09T17:55:41.272Z,19.25
2024-05-09T17:58:43.451Z,19.05
2024-05-09T18:01:45.579Z,19.09
2024-05-09T18:04:47.872Z,19.02
2024-05-09T18:07:50.534Z,18.98
2024-05-09T18:10:55.255Z,18.89
2024-05-09T18:13:58.290Z,18.77
2024-05-09T18:17:00.331Z,18.67
2024-05-09T18:20:05.323Z,18.57
2024-05-09T18:23:08.257Z,18.52
2024-05-09T18:26:10.836Z,18.46
2024-05-09T18:29:12.809Z,18.43
2024-05-09T18:32:15.423Z,18.36
2024-05-09T18:35:17.442Z,18.30
2024-05-09T18:38:25.376Z,18.27
2024-05-09T18:41:27.497Z,18.22
2024-05-09T18:44:31.284Z,18.18
2024-05-09T18:47:33.422Z,18.14
2024-05-09T18:50:39.117Z,18.08
2024-05-09T18:53:44.993Z,18.08
2024-05-09T18:56:47.087Z,18.05
2024-05-09T18:59:49.005Z,17.96
2024-05-09T19:02:51.384Z,17.93
2024-05-09T19:05:53.934Z,17.88
2024-05-09T19:08:58.585Z,17.84
2024-05-09T19:12:06.306Z,17.78
2024-05-09T19:15:09.123Z,17.74
2024-05-09T19:18:13.597Z,17.66
2024-05-09T19:21:16.197Z,17.59
2024-05-09T19:24:18.714Z,17.54
2024-05-09T19:27:20.674Z,17.51
2024-05-09T19:30:30.362Z,17.43
2024-05-09T19:33:40.318Z,17.37
2024-05-09T19:36:42.938Z,17.27
2024-05-09T19:39:45.245Z,17.22
2024-05-09T19:42:47.771Z,17.18
2024-05-09T19:45:50.261Z,17.09
2024-05-09T19:48:52.755Z,17.06
2024-05-09T19:51:55.048Z,17.02
2024-05-09T19:54:57.360Z,16.96
2024-05-09T19:58:01.621Z,16.86
2024-05-09T20:01:06.266Z,16.85
2024-05-09T20:04:08.471Z,16.76
2024-05-09T20:07:12.799Z,16.70
2024-05-09T20:10:23.329Z,16.59
2024-05-09T20:13:29.003Z,16.57
2024-05-09T20:16:32.001Z,16.51
2024-05-09T20:19:35.117Z,16.40
2024-05-09T20:22:38.192Z,16.39
2024-05-09T20:25:41.382Z,16.30
2024-05-09T20:28:46.248Z,16.28
2024-05-09T20:31:48.455Z,16.28
2024-05-09T20:34:51.734Z,16.19
2024-05-09T20:37:54.019Z,16.15
2024-05-09T20:40:56.477Z,16.07
2024-05-09T20:44:01.660Z,16.00
2024-05-09T20:47:04.028Z,15.96
2024-05-09T20:50:13.705Z,15.93
2024-05-09T20:53:22.328Z,15.93
2024-05-09T20:56:25.090Z,15.93
2024-05-09T20:59:27.011Z,15.92
2024-05-09T21:02:29.187Z,15.93
2024-05-09T21:05:31.343Z,15.92
2024-05-09T21:08:33.541Z,15.89
2024-05-09T21:11:35.523Z,15.82
2024-05-09T21:14:37.455Z,15.87
2024-05-09T21:17:39.446Z,15.83
2024-05-09T21:20:41.604Z,15.77
2024-05-09T21:23:43.610Z,15.74
2024-05-09T21:26:45.595Z,15.64
2024-05-09T21:29:47.474Z,15.62
2024-05-09T21:32:49.608Z,15.68
2024-05-09T21:35:51.593Z,15.68
2024-05-09T21:38:53.501Z,15.58
2024-05-09T21:41:55.655Z,15.59
2024-05-09T21:44:57.537Z,15.50
2024-05-09T21:47:59.691Z,15.49
2024-05-09T21:51:01.676Z,15.48
2024-05-09T21:54:03.685Z,15.40
2024-05-09T21:57:06.582Z,15.29
2024-05-09T22:00:24.920Z,15.16
2024-05-09T22:03:34.649Z,15.14
2024-05-09T22:06:36.754Z,15.11
2024-05-09T22:09:40.995Z,15.04
2024-05-09T22:12:42.943Z,15.01
2024-05-09T22:15:45.039Z,14.94
2024-05-09T22:18:47.146Z,14.94
2024-05-09T22:21:49.229Z,14.87
2024-05-09T22:24:51.288Z,14.73
2024-05-09T22:27:53.245Z,14.65
2024-05-09T22:30:55.553Z,14.49
2024-05-09T22:33:57.732Z,14.50
2024-05-09T22:36:59.829Z,14.54
2024-05-09T22:40:03.995Z,14.51
2024-05-09T22:43:07.444Z,14.52
2024-05-09T22:46:09.475Z,14.50
2024-05-09T22:49:11.519Z,14.45
2024-05-09T22:52:13.526Z,14.34
2024-05-09T22:55:15.599Z,14.30
2024-05-09T22:58:18.151Z,14.23
2024-05-09T23:01:20.856Z,14.16
2024-05-09T23:04:23.429Z,14.12
2024-05-09T23:07:25.539Z,14.14
2024-05-09T23:10:35.070Z,14.07
2024-05-09T23:13:39.210Z,14.01
2024-05-09T23:16:42.411Z,13.91
2024-05-09T23:19:44.443Z,13.88
2024-05-09T23:22:46.401Z,13.70
2024-05-09T23:25:49.426Z,13.64
2024-05-09T23:28:51.329Z,13.62
2024-05-09T23:31:53.444Z,13.53
2024-05-09T23:34:55.467Z,13.51
2024-05-09T23:37:57.488Z,13.41
2024-05-09T23:40:59.614Z,13.36
2024-05-09T23:44:01.609Z,13.29
2024-05-09T23:47:03.676Z,13.27
2024-05-09T23:50:16.493Z,13.22
2024-05-09T23:53:22.696Z,13.20
2024-05-09T23:56:24.581Z,13.17
2024-05-09T23:59:26.666Z,13.14
